Wednesday, October 17, 2018, 3:30 AM EDT
Back to Local

KFIG, Clearfield-lawrence Airport

Location: Clearfield, PA, United States Lat: 41.05
Local Time: 3:30 AM EDT ( 7:30 GMT) Lon: -78.417
Time Zone: US/Eastern Elev: 1515 ft

Show me the last for .
Show Decoded

2018-10-17 02:54 METAR KFIG 170654Z AUTO 20006KT 10SM CLR 04/01 A3003 RMK AO2 SLP176 T00440011 =
2018-10-17 01:54 METAR KFIG 170554Z AUTO 21007KT 10SM CLR 04/01 A3004 RMK AO2 SLP179 T00440011
                 10067 20039 58005 =
2018-10-16 23:54 METAR KFIG 170354Z AUTO 22008KT 10SM CLR 05/00 A3006 RMK AO2 SLP187 T00500000 =
2018-10-16 22:54 METAR KFIG 170254Z AUTO 21006KT 10SM CLR 04/01 A3006 RMK AO2 SLP186 T00390006
                 51001 =
2018-10-16 21:54 METAR KFIG 170154Z AUTO 21005KT 10SM CLR 04/01 A3006 RMK AO2 SLP188 T00440006 =
2018-10-16 20:54 METAR KFIG 170054Z AUTO 22004KT 10SM CLR 06/00 A3006 RMK AO2 SLP190 T00560000 =
2018-10-16 19:54 METAR KFIG 162354Z AUTO 22006KT 10SM CLR 07/M01 A3005 RMK AO2 SLP187 T00671006
                 10106 20067 58003 =
2018-10-16 18:54 METAR KFIG 162254Z AUTO 23007KT 10SM CLR 08/M01 A3006 RMK AO2 SLP189 T00781006 =
2018-10-16 17:54 METAR KFIG 162154Z AUTO 24007KT 10SM CLR 09/M01 A3006 RMK AO2 SLP186 T00891011 =
2018-10-16 16:54 METAR KFIG 162054Z AUTO 25006KT 10SM CLR 10/M01 A3006 RMK AO2 SLP187 T01001006
                 56021 =
2018-10-16 15:54 METAR KFIG 161954Z AUTO 23006KT 10SM CLR 11/M01 A3008 RMK AO2 SLP191 T01061006 =
2018-10-16 14:54 METAR KFIG 161854Z AUTO 24011G18KT 210V270 10SM CLR 10/M01 A3010 RMK AO2 SLP198
                 T01001006 =
2018-10-16 13:54 METAR KFIG 161754Z AUTO 23009G17KT 10SM CLR 09/M01 A3013 RMK AO2 SLP208
                 T00941006 10100 20006 58026 =
2018-10-16 12:54 METAR KFIG 161654Z AUTO 23013G18KT 10SM CLR 09/M01 A3015 RMK AO2 SLP215
                 T00891006 =
2018-10-16 11:54 METAR KFIG 161554Z AUTO 24009KT 200V280 10SM CLR 07/M01 A3019 RMK AO2 SLP230
                 T00721011 =
2018-10-16 10:54 METAR KFIG 161454Z AUTO 27008KT 240V300 10SM CLR 07/M01 A3021 RMK AO2 SLP236
                 T00671006 58000 =
2018-10-16 09:54 METAR KFIG 161354Z AUTO VRB04KT 10SM CLR 04/01 A3022 RMK AO2 SLP241 T00440011 =
2018-10-16 08:54 METAR KFIG 161254Z AUTO 21004KT 10SM CLR 02/01 A3022 RMK AO2 SLP242 T00220011 =
2018-10-16 07:54 METAR KFIG 161154Z AUTO 24003KT 10SM CLR 02/00 A3021 RMK AO2 SLP237 70015
                 T00170000 10061 20011 53012 =
2018-10-16 06:54 METAR KFIG 161054Z AUTO 23003KT 10SM CLR 02/M01 A3019 RMK AO2 SLP233 T00171006 =
2018-10-16 05:54 METAR KFIG 160954Z AUTO 25003KT 10SM CLR 03/M01 A3018 RMK AO2 SLP227 T00281011 =
2018-10-16 04:54 METAR KFIG 160854Z AUTO 30005KT 10SM CLR 03/M01 A3017 RMK AO2 SLP222 T00331006
                 51009 =
2018-10-16 03:54 METAR KFIG 160754Z AUTO 28005KT 10SM SCT038 04/00 A3017 RMK AO2 SLP219 T00390000
                 =

Support USWX by starting your Amazon purchase here.